sensor_id;sensor_type;location;lat;lon;timestamp;pressure;altitude;pressure_sealevel;temperature;humidity
74336;BME280;62755;-33.398;-70.572;2023-04-03T00:01:43;92955.00;;;27.78;26.66
74336;BME280;62755;-33.398;-70.572;2023-04-03T00:04:32;92949.94;;;28.01;25.80
74336;BME280;62755;-33.398;-70.572;2023-04-03T00:07:23;92954.53;;;27.93;26.00
74336;BME280;62755;-33.398;-70.572;2023-04-03T00:10:13;92954.22;;;27.64;26.60
74336;BME280;62755;-33.398;-70.572;2023-04-03T00:13:02;92957.84;;;27.72;26.89
74336;BME280;62755;-33.398;-70.572;2023-04-03T00:15:52;92951.56;;;27.91;26.39
74336;BME280;62755;-33.398;-70.572;2023-04-03T00:18:41;92952.13;;;27.70;26.79
74336;BME280;62755;-33.398;-70.572;2023-04-03T00:21:31;92955.09;;;27.72;26.78
74336;BME280;62755;-33.398;-70.572;2023-04-03T00:24:22;92958.47;;;27.65;26.90
74336;BME280;62755;-33.398;-70.572;2023-04-03T00:27:11;92958.47;;;27.65;27.22
74336;BME280;62755;-33.398;-70.572;2023-04-03T00:30:00;92954.97;;;27.46;27.14
74336;BME280;62755;-33.398;-70.572;2023-04-03T00:32:50;92950.31;;;27.41;28.18
74336;BME280;62755;-33.398;-70.572;2023-04-03T00:35:41;92963.16;;;27.52;28.65
74336;BME280;62755;-33.398;-70.572;2023-04-03T00:38:30;92958.19;;;27.32;28.68
74336;BME280;62755;-33.398;-70.572;2023-04-03T00:41:22;92965.41;;;27.35;30.03
74336;BME280;62755;-33.398;-70.572;2023-04-03T00:44:21;92966.53;;;27.45;29.67
74336;BME280;62755;-33.398;-70.572;2023-04-03T00:47:11;92972.00;;;27.26;29.92
74336;BME280;62755;-33.398;-70.572;2023-04-03T00:50:02;92961.75;;;27.08;30.84
74336;BME280;62755;-33.398;-70.572;2023-04-03T00:52:52;92967.69;;;27.12;31.07
74336;BME280;62755;-33.398;-70.572;2023-04-03T00:55:42;92969.47;;;27.28;30.49
74336;BME280;62755;-33.398;-70.572;2023-04-03T00:58:37;92967.09;;;27.19;31.44
74336;BME280;62755;-33.398;-70.572;2023-04-03T01:01:29;92975.91;;;26.93;32.21
74336;BME280;62755;-33.398;-70.572;2023-04-03T01:04:28;92970.19;;;26.91;31.62
74336;BME280;62755;-33.398;-70.572;2023-04-03T01:07:20;92964.91;;;26.75;32.23
74336;BME280;62755;-33.398;-70.572;2023-04-03T01:10:13;92967.44;;;26.67;32.02
74336;BME280;62755;-33.398;-70.572;2023-04-03T01:13:19;92946.16;;;26.68;31.42
74336;BME280;62755;-33.398;-70.572;2023-04-03T01:16:10;92958.72;;;26.63;31.74
74336;BME280;62755;-33.398;-70.572;2023-04-03T01:19:00;92957.69;;;26.42;32.43
74336;BME280;62755;-33.398;-70.572;2023-04-03T01:22:10;92962.00;;;26.38;32.23
74336;BME280;62755;-33.398;-70.572;2023-04-03T01:25:05;92953.06;;;26.32;32.52
74336;BME280;62755;-33.398;-70.572;2023-04-03T01:27:55;92962.78;;;26.33;32.24
74336;BME280;62755;-33.398;-70.572;2023-04-03T01:30:49;92949.63;;;26.26;31.88
74336;BME280;62755;-33.398;-70.572;2023-04-03T01:33:41;92964.97;;;26.40;31.21
74336;BME280;62755;-33.398;-70.572;2023-04-03T01:36:31;92958.63;;;26.50;31.48
74336;BME280;62755;-33.398;-70.572;2023-04-03T01:39:21;92948.59;;;26.29;31.04
74336;BME280;62755;-33.398;-70.572;2023-04-03T01:42:10;92956.50;;;26.62;30.38
74336;BME280;62755;-33.398;-70.572;2023-04-03T01:45:00;92953.44;;;26.65;29.15
74336;BME280;62755;-33.398;-70.572;2023-04-03T01:47:49;92950.44;;;26.45;28.85
74336;BME280;62755;-33.398;-70.572;2023-04-03T01:50:40;92944.31;;;26.33;28.11
74336;BME280;62755;-33.398;-70.572;2023-04-03T01:53:29;92941.31;;;26.31;27.46
74336;BME280;62755;-33.398;-70.572;2023-04-03T01:56:19;92933.59;;;26.30;27.06
74336;BME280;62755;-33.398;-70.572;2023-04-03T01:59:08;92941.38;;;26.50;27.01
74336;BME280;62755;-33.398;-70.572;2023-04-03T02:01:58;92938.13;;;26.51;26.68
74336;BME280;62755;-33.398;-70.572;2023-04-03T02:04:47;92914.00;;;26.39;26.55
74336;BME280;62755;-33.398;-70.572;2023-04-03T02:07:38;92933.75;;;26.37;26.55
74336;BME280;62755;-33.398;-70.572;2023-04-03T02:10:27;92917.19;;;26.19;26.79
74336;BME280;62755;-33.398;-70.572;2023-04-03T02:13:17;92933.00;;;26.13;26.71
74336;BME280;62755;-33.398;-70.572;2023-04-03T02:16:08;92930.78;;;26.05;27.14
74336;BME280;62755;-33.398;-70.572;2023-04-03T02:18:58;92931.81;;;26.02;26.97
74336;BME280;62755;-33.398;-70.572;2023-04-03T02:21:47;92931.91;;;25.91;27.07
74336;BME280;62755;-33.398;-70.572;2023-04-03T02:24:38;92944.56;;;25.70;27.22
74336;BME280;62755;-33.398;-70.572;2023-04-03T02:27:28;92930.50;;;25.79;27.39
74336;BME280;62755;-33.398;-70.572;2023-04-03T02:30:18;92926.78;;;25.77;27.76
74336;BME280;62755;-33.398;-70.572;2023-04-03T02:33:08;92927.75;;;25.79;27.78
74336;BME280;62755;-33.398;-70.572;2023-04-03T02:35:57;92924.19;;;25.60;28.70
74336;BME280;62755;-33.398;-70.572;2023-04-03T02:38:47;92920.44;;;25.87;28.44
74336;BME280;62755;-33.398;-70.572;2023-04-03T02:41:38;92919.16;;;25.94;28.01
74336;BME280;62755;-33.398;-70.572;2023-04-03T02:44:27;92924.50;;;26.10;28.27
74336;BME280;62755;-33.398;-70.572;2023-04-03T02:47:17;92926.22;;;25.84;28.44
74336;BME280;62755;-33.398;-70.572;2023-04-03T02:50:07;92918.41;;;25.93;27.95
74336;BME280;62755;-33.398;-70.572;2023-04-03T02:52:56;92925.16;;;25.92;28.60
74336;BME280;62755;-33.398;-70.572;2023-04-03T02:55:45;92920.38;;;25.69;28.07
74336;BME280;62755;-33.398;-70.572;2023-04-03T02:58:37;92921.03;;;25.80;27.99
74336;BME280;62755;-33.398;-70.572;2023-04-03T03:01:26;92918.97;;;25.86;27.98
74336;BME280;62755;-33.398;-70.572;2023-04-03T03:04:18;92912.44;;;25.89;28.91
74336;BME280;62755;-33.398;-70.572;2023-04-03T03:07:07;92911.03;;;25.77;28.97
74336;BME280;62755;-33.398;-70.572;2023-04-03T03:09:57;92914.81;;;25.74;29.17
74336;BME280;62755;-33.398;-70.572;2023-04-03T03:12:46;92916.06;;;25.73;29.01
74336;BME280;62755;-33.398;-70.572;2023-04-03T03:15:37;92914.75;;;25.50;29.74
74336;BME280;62755;-33.398;-70.572;2023-04-03T03:18:27;92913.41;;;25.62;28.85
74336;BME280;62755;-33.398;-70.572;2023-04-03T03:21:16;92915.31;;;25.43;29.33
74336;BME280;62755;-33.398;-70.572;2023-04-03T03:24:07;92919.81;;;25.41;29.15
74336;BME280;62755;-33.398;-70.572;2023-04-03T03:26:56;92915.22;;;25.54;29.24
74336;BME280;62755;-33.398;-70.572;2023-04-03T03:29:46;92917.56;;;25.45;29.28
74336;BME280;62755;-33.398;-70.572;2023-04-03T03:32:37;92918.22;;;25.56;29.59
74336;BME280;62755;-33.398;-70.572;2023-04-03T03:35:26;92924.81;;;25.42;29.68
74336;BME280;62755;-33.398;-70.572;2023-04-03T03:38:16;92915.06;;;25.36;29.81
74336;BME280;62755;-33.398;-70.572;2023-04-03T03:41:05;92922.44;;;25.57;29.63
74336;BME280;62755;-33.398;-70.572;2023-04-03T03:43:54;92911.44;;;25.57;30.19
74336;BME280;62755;-33.398;-70.572;2023-04-03T03:46:44;92916.25;;;25.51;30.67
74336;BME280;62755;-33.398;-70.572;2023-04-03T03:49:35;92906.59;;;25.34;30.66
74336;BME280;62755;-33.398;-70.572;2023-04-03T03:52:24;92920.81;;;25.43;31.41
74336;BME280;62755;-33.398;-70.572;2023-04-03T03:55:14;92927.78;;;25.44;31.19
74336;BME280;62755;-33.398;-70.572;2023-04-03T03:58:03;92918.41;;;25.64;31.20
74336;BME280;62755;-33.398;-70.572;2023-04-03T04:00:52;92905.81;;;25.44;30.41
74336;BME280;62755;-33.398;-70.572;2023-04-03T04:03:42;92915.56;;;25.40;30.66
74336;BME280;62755;-33.398;-70.572;2023-04-03T04:06:33;92892.91;;;25.28;29.45
74336;BME280;62755;-33.398;-70.572;2023-04-03T04:09:23;92904.06;;;25.47;30.19
74336;BME280;62755;-33.398;-70.572;2023-04-03T04:12:12;92904.09;;;25.36;31.27
74336;BME280;62755;-33.398;-70.572;2023-04-03T04:15:01;92906.84;;;25.41;31.69
74336;BME280;62755;-33.398;-70.572;2023-04-03T04:17:51;92899.78;;;25.51;31.68
74336;BME280;62755;-33.398;-70.572;2023-04-03T04:20:40;92898.59;;;25.36;32.19
74336;BME280;62755;-33.398;-70.572;2023-04-03T04:23:31;92896.25;;;25.15;31.34
74336;BME280;62755;-33.398;-70.572;2023-04-03T04:26:20;92887.13;;;25.02;31.47
74336;BME280;62755;-33.398;-70.572;2023-04-03T04:29:10;92892.81;;;25.09;30.77
74336;BME280;62755;-33.398;-70.572;2023-04-03T04:31:59;92897.41;;;25.31;30.19
74336;BME280;62755;-33.398;-70.572;2023-04-03T04:34:49;92875.88;;;25.05;30.21
74336;BME280;62755;-33.398;-70.572;2023-04-03T04:37:38;92875.97;;;24.83;29.50
74336;BME280;62755;-33.398;-70.572;2023-04-03T04:40:29;92884.66;;;24.93;28.88
74336;BME280;62755;-33.398;-70.572;2023-04-03T04:43:19;92882.09;;;24.54;28.86
74336;BME280;62755;-33.398;-70.572;2023-04-03T04:46:09;92887.59;;;24.49;28.07
74336;BME280;62755;-33.398;-70.572;2023-04-03T04:49:00;92885.47;;;24.77;27.78
74336;BME280;62755;-33.398;-70.572;2023-04-03T04:51:49;92878.53;;;24.70;27.31
74336;BME280;62755;-33.398;-70.572;2023-04-03T04:54:38;92875.91;;;24.42;27.38
74336;BME280;62755;-33.398;-70.572;2023-04-03T04:57:29;92872.94;;;24.35;27.40
74336;BME280;62755;-33.398;-70.572;2023-04-03T05:00:19;92881.56;;;24.56;28.22
74336;BME280;62755;-33.398;-70.572;2023-04-03T05:03:09;92861.31;;;24.70;27.46
74336;BME280;62755;-33.398;-70.572;2023-04-03T05:05:58;92879.16;;;24.93;27.07
74336;BME280;62755;-33.398;-70.572;2023-04-03T05:08:47;92870.78;;;24.69;26.76
74336;BME280;62755;-33.398;-70.572;2023-04-03T05:11:37;92857.66;;;24.56;26.67
74336;BME280;62755;-33.398;-70.572;2023-04-03T05:14:28;92875.97;;;24.83;26.63
74336;BME280;62755;-33.398;-70.572;2023-04-03T05:17:18;92855.84;;;24.70;26.28
74336;BME280;62755;-33.398;-70.572;2023-04-03T05:20:08;92873.28;;;24.78;30.28
74336;BME280;62755;-33.398;-70.572;2023-04-03T05:22:57;92882.22;;;24.84;31.96
74336;BME280;62755;-33.398;-70.572;2023-04-03T05:25:46;92869.94;;;24.38;34.96
74336;BME280;62755;-33.398;-70.572;2023-04-03T05:28:36;92891.78;;;24.61;34.53
74336;BME280;62755;-33.398;-70.572;2023-04-03T05:31:27;92868.97;;;24.30;36.63
74336;BME280;62755;-33.398;-70.572;2023-04-03T05:34:16;92888.81;;;24.59;36.08
74336;BME280;62755;-33.398;-70.572;2023-04-03T05:37:06;92873.56;;;24.63;35.32
74336;BME280;62755;-33.398;-70.572;2023-04-03T05:39:55;92881.28;;;24.70;35.85
74336;BME280;62755;-33.398;-70.572;2023-04-03T05:42:44;92874.38;;;24.53;35.45
74336;BME280;62755;-33.398;-70.572;2023-04-03T05:45:34;92879.78;;;24.64;35.97
74336;BME280;62755;-33.398;-70.572;2023-04-03T05:48:25;92859.59;;;24.61;35.57
74336;BME280;62755;-33.398;-70.572;2023-04-03T05:51:16;92869.31;;;24.68;34.77
74336;BME280;62755;-33.398;-70.572;2023-04-03T05:54:11;92873.75;;;24.82;33.75
74336;BME280;62755;-33.398;-70.572;2023-04-03T05:57:01;92874.38;;;24.53;35.36
74336;BME280;62755;-33.398;-70.572;2023-04-03T05:59:51;92865.28;;;24.69;34.68
74336;BME280;62755;-33.398;-70.572;2023-04-03T06:02:40;92871.63;;;24.53;35.77
74336;BME280;62755;-33.398;-70.572;2023-04-03T06:05:31;92879.88;;;24.41;35.81
74336;BME280;62755;-33.398;-70.572;2023-04-03T06:08:20;92857.66;;;24.56;35.00
74336;BME280;62755;-33.398;-70.572;2023-04-03T06:11:10;92865.34;;;24.58;36.65
74336;BME280;62755;-33.398;-70.572;2023-04-03T06:13:59;92850.72;;;24.44;36.06
74336;BME280;62755;-33.398;-70.572;2023-04-03T06:16:49;92861.97;;;24.29;36.91
74336;BME280;62755;-33.398;-70.572;2023-04-03T06:19:39;92857.50;;;24.26;35.08
74336;BME280;62755;-33.398;-70.572;2023-04-03T06:22:30;92830.44;;;24.06;33.19
74336;BME280;62755;-33.398;-70.572;2023-04-03T06:25:19;92855.72;;;24.40;34.25
74336;BME280;62755;-33.398;-70.572;2023-04-03T06:28:09;92837.06;;;24.27;35.74
74336;BME280;62755;-33.398;-70.572;2023-04-03T06:30:58;92847.31;;;24.27;35.38
74336;BME280;62755;-33.398;-70.572;2023-04-03T06:33:48;92839.84;;;24.16;34.82
74336;BME280;62755;-33.398;-70.572;2023-04-03T06:36:37;92844.81;;;24.29;34.48
74336;BME280;62755;-33.398;-70.572;2023-04-03T06:39:28;92840.63;;;24.06;34.83
74336;BME280;62755;-33.398;-70.572;2023-04-03T06:42:18;92838.66;;;24.06;34.46
74336;BME280;62755;-33.398;-70.572;2023-04-03T06:45:08;92832.19;;;24.09;32.68
74336;BME280;62755;-33.398;-70.572;2023-04-03T06:47:58;92834.13;;;24.14;32.55
74336;BME280;62755;-33.398;-70.572;2023-04-03T06:50:48;92831.13;;;24.23;32.40
74336;BME280;62755;-33.398;-70.572;2023-04-03T06:53:37;92829.66;;;24.00;31.55
74336;BME280;62755;-33.398;-70.572;2023-04-03T06:56:28;92822.47;;;23.92;31.06
74336;BME280;62755;-33.398;-70.572;2023-04-03T06:59:18;92829.75;;;23.78;31.73
74336;BME280;62755;-33.398;-70.572;2023-04-03T07:02:08;92821.25;;;23.82;31.84
74336;BME280;62755;-33.398;-70.572;2023-04-03T07:04:58;92815.84;;;23.43;29.71
74336;BME280;62755;-33.398;-70.572;2023-04-03T07:07:47;92804.41;;;23.11;27.84
74336;BME280;62755;-33.398;-70.572;2023-04-03T07:10:38;92811.09;;;23.10;28.63
74336;BME280;62755;-33.398;-70.572;2023-04-03T07:13:29;92811.84;;;22.89;28.57
74336;BME280;62755;-33.398;-70.572;2023-04-03T07:16:19;92811.09;;;22.88;27.40
74336;BME280;62755;-33.398;-70.572;2023-04-03T07:19:08;92810.31;;;22.77;27.78
74336;BME280;62755;-33.398;-70.572;2023-04-03T07:21:58;92792.69;;;22.94;27.80
74336;BME280;62755;-33.398;-70.572;2023-04-03T07:24:47;92808.13;;;23.30;27.29
74336;BME280;62755;-33.398;-70.572;2023-04-03T07:27:36;92807.63;;;23.21;27.37
74336;BME280;62755;-33.398;-70.572;2023-04-03T07:30:28;92805.38;;;23.47;28.42
74336;BME280;62755;-33.398;-70.572;2023-04-03T07:33:18;92802.41;;;23.39;28.78
74336;BME280;62755;-33.398;-70.572;2023-04-03T07:36:09;92817.31;;;23.49;28.86
74336;BME280;62755;-33.398;-70.572;2023-04-03T07:38:59;92793.44;;;23.39;28.27
74336;BME280;62755;-33.398;-70.572;2023-04-03T07:41:49;92804.91;;;23.32;28.17
74336;BME280;62755;-33.398;-70.572;2023-04-03T07:44:38;92812.34;;;23.26;28.80
74336;BME280;62755;-33.398;-70.572;2023-04-03T07:47:29;92800.19;;;23.32;28.95
74336;BME280;62755;-33.398;-70.572;2023-04-03T07:50:19;92814.56;;;23.55;29.10
74336;BME280;62755;-33.398;-70.572;2023-04-03T07:53:09;92815.06;;;23.65;29.18
74336;BME280;62755;-33.398;-70.572;2023-04-03T07:55:58;92824.00;;;23.71;28.97
74336;BME280;62755;-33.398;-70.572;2023-04-03T07:58:49;92820.09;;;23.33;28.80
74336;BME280;62755;-33.398;-70.572;2023-04-03T08:01:38;92805.38;;;23.14;29.96
74336;BME280;62755;-33.398;-70.572;2023-04-03T08:04:30;92810.09;;;23.08;30.48
74336;BME280;62755;-33.398;-70.572;2023-04-03T08:07:19;92811.84;;;23.11;30.60
74336;BME280;62755;-33.398;-70.572;2023-04-03T08:10:09;92820.81;;;23.17;31.13
74336;BME280;62755;-33.398;-70.572;2023-04-03T08:12:58;92822.28;;;23.23;30.54
74336;BME280;62755;-33.398;-70.572;2023-04-03T08:15:47;92822.31;;;23.29;30.52
74336;BME280;62755;-33.398;-70.572;2023-04-03T08:18:37;92794.19;;;22.90;30.26
74336;BME280;62755;-33.398;-70.572;2023-04-03T08:21:28;92818.56;;;23.10;29.81
74336;BME280;62755;-33.398;-70.572;2023-04-03T08:24:17;92809.88;;;23.17;29.95
74336;BME280;62755;-33.398;-70.572;2023-04-03T08:27:07;92804.38;;;22.95;31.25
74336;BME280;62755;-33.398;-70.572;2023-04-03T08:29:57;92803.63;;;23.00;32.66
74336;BME280;62755;-33.398;-70.572;2023-04-03T08:32:46;92804.84;;;22.77;33.62
74336;BME280;62755;-33.398;-70.572;2023-04-03T08:35:39;92811.59;;;22.98;34.06
74336;BME280;62755;-33.398;-70.572;2023-04-03T08:38:30;92809.56;;;22.76;34.90
74336;BME280;62755;-33.398;-70.572;2023-04-03T08:41:29;92796.91;;;22.79;35.08
74336;BME280;62755;-33.398;-70.572;2023-04-03T08:44:24;92820.28;;;22.80;35.20
74336;BME280;62755;-33.398;-70.572;2023-04-03T08:47:20;92814.31;;;22.76;35.73
74336;BME280;62755;-33.398;-70.572;2023-04-03T08:50:16;92812.31;;;22.70;36.80
74336;BME280;62755;-33.398;-70.572;2023-04-03T08:53:12;92814.09;;;22.96;36.31
74336;BME280;62755;-33.398;-70.572;2023-04-03T08:56:07;92806.63;;;22.74;35.52
74336;BME280;62755;-33.398;-70.572;2023-04-03T08:59:01;92821.28;;;23.10;35.69
74336;BME280;62755;-33.398;-70.572;2023-04-03T09:01:54;92783.25;;;22.84;35.64
74336;BME280;62755;-33.398;-70.572;2023-04-03T09:04:45;92798.91;;;22.95;36.41
74336;BME280;62755;-33.398;-70.572;2023-04-03T09:07:38;92830.50;;;23.12;36.53
74336;BME280;62755;-33.398;-70.572;2023-04-03T09:10:33;92824.78;;;22.99;38.03
74336;BME280;62755;-33.398;-70.572;2023-04-03T09:13:31;92810.34;;;23.10;37.03
74336;BME280;62755;-33.398;-70.572;2023-04-03T09:16:39;92822.78;;;23.11;37.20
74336;BME280;62755;-33.398;-70.572;2023-04-03T09:19:37;92821.06;;;23.13;37.38
74336;BME280;62755;-33.398;-70.572;2023-04-03T09:22:32;92820.56;;;23.09;33.49
74336;BME280;62755;-33.398;-70.572;2023-04-03T09:25:27;92826.25;;;22.95;30.66
74336;BME280;62755;-33.398;-70.572;2023-04-03T09:28:19;92824.75;;;22.83;31.75
74336;BME280;62755;-33.398;-70.572;2023-04-03T09:31:19;92824.28;;;22.90;30.67
74336;BME280;62755;-33.398;-70.572;2023-04-03T09:34:17;92827.72;;;22.74;31.19
74336;BME280;62755;-33.398;-70.572;2023-04-03T09:37:09;92823.72;;;22.63;33.07
74336;BME280;62755;-33.398;-70.572;2023-04-03T09:39:58;92827.69;;;22.62;33.88
74336;BME280;62755;-33.398;-70.572;2023-04-03T09:42:47;92823.22;;;22.70;33.87
74336;BME280;62755;-33.398;-70.572;2023-04-03T09:45:37;92826.22;;;22.61;34.03
74336;BME280;62755;-33.398;-70.572;2023-04-03T09:48:28;92816.25;;;22.58;34.22
74336;BME280;62755;-33.398;-70.572;2023-04-03T09:51:18;92826.47;;;22.58;35.14
74336;BME280;62755;-33.398;-70.572;2023-04-03T09:54:31;92826.72;;;22.65;35.30
74336;BME280;62755;-33.398;-70.572;2023-04-03T09:57:22;92826.16;;;22.50;35.61
74336;BME280;62755;-33.398;-70.572;2023-04-03T10:00:22;92833.09;;;22.51;35.39
74336;BME280;62755;-33.398;-70.572;2023-04-03T10:03:24;92820.34;;;22.21;34.09
74336;BME280;62755;-33.398;-70.572;2023-04-03T10:06:25;92824.84;;;22.35;33.93
74336;BME280;62755;-33.398;-70.572;2023-04-03T10:09:20;92823.09;;;22.26;33.78
74336;BME280;62755;-33.398;-70.572;2023-04-03T10:12:12;92819.34;;;22.24;33.56
74336;BME280;62755;-33.398;-70.572;2023-04-03T10:15:02;92823.56;;;22.19;33.14
74336;BME280;62755;-33.398;-70.572;2023-04-03T10:17:56;92822.06;;;22.18;34.02
74336;BME280;62755;-33.398;-70.572;2023-04-03T10:20:49;92823.09;;;22.26;34.57
74336;BME280;62755;-33.398;-70.572;2023-04-03T10:23:45;92824.31;;;22.25;33.97
74336;BME280;62755;-33.398;-70.572;2023-04-03T10:26:45;92823.09;;;22.21;34.69
74336;BME280;62755;-33.398;-70.572;2023-04-03T10:29:42;92831.56;;;22.28;34.02
74336;BME280;62755;-33.398;-70.572;2023-04-03T10:32:45;92808.19;;;22.27;33.36
74336;BME280;62755;-33.398;-70.572;2023-04-03T10:35:42;92811.66;;;22.22;33.16
74336;BME280;62755;-33.398;-70.572;2023-04-03T10:38:43;92821.66;;;22.36;35.37
74336;BME280;62755;-33.398;-70.572;2023-04-03T10:41:42;92818.59;;;22.23;36.08
74336;BME280;62755;-33.398;-70.572;2023-04-03T10:44:37;92827.56;;;22.29;35.34
74336;BME280;62755;-33.398;-70.572;2023-04-03T10:47:36;92812.59;;;22.08;34.93
74336;BME280;62755;-33.398;-70.572;2023-04-03T10:50:39;92833.28;;;22.31;34.73
74336;BME280;62755;-33.398;-70.572;2023-04-03T10:53:37;92830.81;;;22.33;33.97
74336;BME280;62755;-33.398;-70.572;2023-04-03T10:56:36;92833.59;;;22.44;33.90
74336;BME280;62755;-33.398;-70.572;2023-04-03T10:59:30;92840.31;;;22.54;33.93
74336;BME280;62755;-33.398;-70.572;2023-04-03T11:02:25;92844.59;;;22.66;33.89
74336;BME280;62755;-33.398;-70.572;2023-04-03T11:05:22;92840.63;;;22.67;33.49
74336;BME280;62755;-33.398;-70.572;2023-04-03T11:08:23;92836.34;;;22.55;34.15
74336;BME280;62755;-33.398;-70.572;2023-04-03T11:11:19;92853.50;;;22.50;32.97
74336;BME280;62755;-33.398;-70.572;2023-04-03T11:14:17;92870.16;;;22.52;33.50
74336;BME280;62755;-33.398;-70.572;2023-04-03T11:17:21;92862.75;;;22.64;33.21
74336;BME280;62755;-33.398;-70.572;2023-04-03T11:20:17;92858.78;;;22.70;33.29
74336;BME280;62755;-33.398;-70.572;2023-04-03T11:23:13;92857.03;;;22.67;33.11
74336;BME280;62755;-33.398;-70.572;2023-04-03T11:26:10;92854.78;;;22.60;33.07
74336;BME280;62755;-33.398;-70.572;2023-04-03T11:29:03;92859.69;;;22.51;32.44
74336;BME280;62755;-33.398;-70.572;2023-04-03T11:32:10;92869.38;;;22.46;32.66
74336;BME280;62755;-33.398;-70.572;2023-04-03T11:35:02;92866.69;;;22.04;32.78
74336;BME280;62755;-33.398;-70.572;2023-04-03T11:37:54;92870.16;;;21.99;32.89
74336;BME280;62755;-33.398;-70.572;2023-04-03T11:40:45;92856.78;;;22.01;31.90
74336;BME280;62755;-33.398;-70.572;2023-04-03T11:43:40;92866.13;;;21.89;32.07
74336;BME280;62755;-33.398;-70.572;2023-04-03T11:46:52;92862.75;;;22.05;32.01
74336;BME280;62755;-33.398;-70.572;2023-04-03T11:49:57;92845.84;;;22.01;31.69
74336;BME280;62755;-33.398;-70.572;2023-04-03T11:53:10;92868.25;;;22.16;32.05
74336;BME280;62755;-33.398;-70.572;2023-04-03T11:56:29;92874.47;;;22.17;32.22
74336;BME280;62755;-33.398;-70.572;2023-04-03T11:59:25;92878.72;;;22.23;33.23
74336;BME280;62755;-33.398;-70.572;2023-04-03T12:02:36;92875.00;;;22.21;32.79
74336;BME280;62755;-33.398;-70.572;2023-04-03T12:05:29;92874.78;;;22.35;32.50
74336;BME280;62755;-33.398;-70.572;2023-04-03T12:08:25;92873.34;;;22.45;32.28
74336;BME280;62755;-33.398;-70.572;2023-04-03T12:11:23;92898.53;;;22.13;33.72
74336;BME280;62755;-33.398;-70.572;2023-04-03T12:14:15;92893.78;;;22.08;33.89
74336;BME280;62755;-33.398;-70.572;2023-04-03T12:17:21;92899.25;;;22.13;34.09
74336;BME280;62755;-33.398;-70.572;2023-04-03T12:23:37;92903.34;;;22.29;33.75
74336;BME280;62755;-33.398;-70.572;2023-04-03T12:26:47;92908.81;;;22.34;33.73
74336;BME280;62755;-33.398;-70.572;2023-04-03T12:29:42;92906.38;;;22.42;33.24
74336;BME280;62755;-33.398;-70.572;2023-04-03T12:32:58;92912.44;;;22.09;34.56
74336;BME280;62755;-33.398;-70.572;2023-04-03T12:36:02;92909.53;;;21.81;34.79
74336;BME280;62755;-33.398;-70.572;2023-04-03T12:39:04;92903.31;;;21.81;34.83
74336;BME280;62755;-33.398;-70.572;2023-04-03T12:42:04;92918.78;;;21.95;34.03
74336;BME280;62755;-33.398;-70.572;2023-04-03T12:45:03;92917.41;;;21.48;34.55
74336;BME280;62755;-33.398;-70.572;2023-04-03T12:48:03;92918.03;;;21.95;34.28
74336;BME280;62755;-33.398;-70.572;2023-04-03T12:50:56;92913.59;;;21.97;34.34
74336;BME280;62755;-33.398;-70.572;2023-04-03T12:53:46;92917.81;;;21.98;34.15
74336;BME280;62755;-33.398;-70.572;2023-04-03T12:56:37;92924.38;;;22.17;33.75
74336;BME280;62755;-33.398;-70.572;2023-04-03T12:59:27;92922.19;;;22.27;33.95
74336;BME280;62755;-33.398;-70.572;2023-04-03T13:02:24;92919.47;;;22.27;34.03
74336;BME280;62755;-33.398;-70.572;2023-04-03T13:05:17;92931.22;;;22.44;33.84
74336;BME280;62755;-33.398;-70.572;2023-04-03T13:08:11;92938.13;;;22.34;34.32
74336;BME280;62755;-33.398;-70.572;2023-04-03T13:11:04;92926.34;;;22.64;33.92
74336;BME280;62755;-33.398;-70.572;2023-04-03T13:13:58;92917.84;;;22.51;34.57
74336;BME280;62755;-33.398;-70.572;2023-04-03T13:16:55;92915.72;;;22.78;34.21
74336;BME280;62755;-33.398;-70.572;2023-04-03T13:19:46;92925.41;;;22.79;34.28
74336;BME280;62755;-33.398;-70.572;2023-04-03T13:22:36;92910.22;;;22.66;34.13
74336;BME280;62755;-33.398;-70.572;2023-04-03T13:25:31;92918.25;;;22.92;33.60
74336;BME280;62755;-33.398;-70.572;2023-04-03T13:28:23;92926.00;;;23.10;32.96
74336;BME280;62755;-33.398;-70.572;2023-04-03T13:31:23;92911.09;;;23.17;32.15
74336;BME280;62755;-33.398;-70.572;2023-04-03T13:34:16;92929.75;;;23.24;31.87
74336;BME280;62755;-33.398;-70.572;2023-04-03T13:37:11;92928.75;;;23.21;31.41
74336;BME280;62755;-33.398;-70.572;2023-04-03T13:40:12;92934.78;;;23.31;31.31
74336;BME280;62755;-33.398;-70.572;2023-04-03T13:43:04;92909.59;;;23.21;31.32
74336;BME280;62755;-33.398;-70.572;2023-04-03T13:45:59;92933.78;;;23.45;31.25
74336;BME280;62755;-33.398;-70.572;2023-04-03T13:48:54;92936.00;;;23.41;31.82
74336;BME280;62755;-33.398;-70.572;2023-04-03T13:51:44;92930.56;;;23.58;31.78
74336;BME280;62755;-33.398;-70.572;2023-04-03T13:54:35;92945.75;;;23.75;31.52
74336;BME280;62755;-33.398;-70.572;2023-04-03T13:57:25;92941.00;;;23.87;30.98
74336;BME280;62755;-33.398;-70.572;2023-04-03T14:00:35;92925.81;;;23.91;30.91
74336;BME280;62755;-33.398;-70.572;2023-04-03T14:03:29;92934.28;;;23.88;30.69
74336;BME280;62755;-33.398;-70.572;2023-04-03T14:06:21;92940.25;;;23.97;30.51
74336;BME280;62755;-33.398;-70.572;2023-04-03T14:09:10;92933.75;;;24.00;30.31
74336;BME280;62755;-33.398;-70.572;2023-04-03T14:12:05;92947.72;;;24.24;30.55
74336;BME280;62755;-33.398;-70.572;2023-04-03T14:14:54;92955.16;;;24.29;31.57
74336;BME280;62755;-33.398;-70.572;2023-04-03T14:17:44;92949.69;;;24.29;32.76
74336;BME280;62755;-33.398;-70.572;2023-04-03T14:20:33;92965.13;;;24.38;32.12
74336;BME280;62755;-33.398;-70.572;2023-04-03T14:23:24;92965.38;;;24.40;32.35
74336;BME280;62755;-33.398;-70.572;2023-04-03T14:26:15;92961.19;;;24.17;32.73
74336;BME280;62755;-33.398;-70.572;2023-04-03T14:29:05;92966.44;;;24.09;32.30
74336;BME280;62755;-33.398;-70.572;2023-04-03T14:31:54;92959.94;;;23.96;33.28
74336;BME280;62755;-33.398;-70.572;2023-04-03T14:34:44;92957.69;;;23.83;34.10
74336;BME280;62755;-33.398;-70.572;2023-04-03T14:37:34;92946.97;;;23.96;34.43
74336;BME280;62755;-33.398;-70.572;2023-04-03T14:40:27;92948.22;;;23.95;33.86
74336;BME280;62755;-33.398;-70.572;2023-04-03T14:43:16;92950.72;;;23.93;34.23